createdAt,value
2018-08-25T00:04:49.607Z,100661.94
2018-08-25T00:09:59.023Z,100654.68
2018-08-25T00:15:08.089Z,100654.36
2018-08-25T00:20:16.901Z,100645.44
2018-08-25T00:25:26.462Z,100655.42
2018-08-25T00:30:35.766Z,100651.52
2018-08-25T00:35:44.975Z,100653.07
2018-08-25T00:40:54.370Z,100644.27
2018-08-25T00:46:03.968Z,100655.73
2018-08-25T00:51:13.248Z,100656.66
2018-08-25T00:56:22.479Z,100669.07
2018-08-25T01:01:31.208Z,100673.81
2018-08-25T01:06:40.110Z,100678.02
2018-08-25T01:11:49.300Z,100671.33
2018-08-25T01:16:58.606Z,100663.28
2018-08-25T01:22:07.556Z,100673.41
2018-08-25T01:27:16.571Z,100678.05
2018-08-25T01:32:25.462Z,100673.30
2018-08-25T01:37:34.914Z,100662.33
2018-08-25T01:42:44.176Z,100660.69
2018-08-25T01:47:53.668Z,100667.65
2018-08-25T01:53:02.781Z,100657.06
2018-08-25T01:58:12.408Z,100654.14
2018-08-25T02:03:21.622Z,100647.33
2018-08-25T02:08:30.988Z,100643.12
2018-08-25T02:13:40.798Z,100642.55
2018-08-25T02:18:49.688Z,100643.23
2018-08-25T02:23:58.948Z,100642.22
2018-08-25T02:29:07.705Z,100639.00
2018-08-25T02:34:16.778Z,100639.50
2018-08-25T02:39:25.711Z,100632.36
2018-08-25T02:44:35.051Z,100625.56
2018-08-25T02:49:44.363Z,100631.56
2018-08-25T02:54:53.928Z,100630.05
2018-08-25T03:00:03.206Z,100631.73
2018-08-25T03:05:12.381Z,100634.55
2018-08-25T03:10:21.621Z,100614.81
2018-08-25T03:15:30.688Z,100605.06
2018-08-25T03:20:41.060Z,100597.97
2018-08-25T03:25:50.319Z,100589.56
2018-08-25T03:30:59.686Z,100603.29
2018-08-25T03:36:09.183Z,100602.70
2018-08-25T03:41:18.373Z,100611.16
2018-08-25T03:46:27.646Z,100614.73
2018-08-25T03:51:36.758Z,100601.44
2018-08-25T03:56:45.862Z,100592.04
2018-08-25T04:01:55.008Z,100595.10
2018-08-25T04:07:04.918Z,100584.72
2018-08-25T04:12:13.731Z,100594.27
2018-08-25T04:17:22.791Z,100589.23
2018-08-25T04:22:31.873Z,100580.96
2018-08-25T04:27:41.201Z,100579.17
2018-08-25T04:32:50.331Z,100580.18
2018-08-25T04:37:59.786Z,100580.45
2018-08-25T04:43:09.203Z,100579.62
2018-08-25T04:48:18.237Z,100573.66
2018-08-25T04:53:27.541Z,100577.21
2018-08-25T04:58:36.749Z,100580.04
2018-08-25T05:03:45.911Z,100573.30
2018-08-25T05:08:55.081Z,100574.33
2018-08-25T05:14:04.228Z,100585.72
2018-08-25T05:19:13.201Z,100588.84
2018-08-25T05:24:22.545Z,100587.58
2018-08-25T05:29:31.861Z,100591.02
2018-08-25T05:34:41.031Z,100591.44
2018-08-25T05:39:50.299Z,100586.17
2018-08-25T05:44:59.248Z,100581.51
2018-08-25T05:50:08.917Z,100580.72
2018-08-25T05:55:17.860Z,100568.44
2018-08-25T06:00:28.079Z,100576.37
2018-08-25T06:05:37.699Z,100575.61
2018-08-25T06:10:46.688Z,100581.86
2018-08-25T06:15:57.938Z,100579.33
2018-08-25T06:21:07.539Z,100560.96
2018-08-25T06:26:16.154Z,100568.22
2018-08-25T06:31:25.580Z,100563.27
2018-08-25T06:36:34.871Z,100567.81
2018-08-25T06:41:43.996Z,100575.14
2018-08-25T06:46:53.434Z,100582.80
2018-08-25T06:52:03.082Z,100589.60
2018-08-25T06:57:11.900Z,100576.81
2018-08-25T07:02:20.924Z,100577.75
2018-08-25T07:07:31.195Z,100580.14
2018-08-25T07:12:40.652Z,100583.95
2018-08-25T07:17:50.046Z,100586.67
2018-08-25T07:22:58.797Z,100592.40
2018-08-25T07:28:08.367Z,100581.62
2018-08-25T07:33:17.207Z,100587.20
2018-08-25T07:38:26.698Z,100579.77
2018-08-25T07:43:36.010Z,100584.88
2018-08-25T07:48:45.814Z,100574.33
2018-08-25T07:53:54.819Z,100572.47
2018-08-25T07:59:04.084Z,100570.59
2018-08-25T08:04:13.425Z,100564.16
2018-08-25T08:09:22.824Z,100562.41
2018-08-25T08:14:32.008Z,100568.05
2018-08-25T08:19:41.321Z,100563.48
2018-08-25T08:24:50.499Z,100559.69
2018-08-25T08:29:59.532Z,100560.03
2018-08-25T08:35:10.412Z,100555.84
2018-08-25T08:40:20.117Z,100553.28
2018-08-25T08:45:28.986Z,100547.69
2018-08-25T08:50:38.481Z,100550.44
2018-08-25T08:55:48.228Z,100548.48
2018-08-25T09:00:56.930Z,100538.52
2018-08-25T09:06:06.410Z,100537.20
2018-08-25T09:11:15.854Z,100521.66
2018-08-25T09:16:25.163Z,100518.05
2018-08-25T09:21:34.766Z,100509.97
2018-08-25T09:26:44.247Z,100494.75
2018-08-25T09:31:53.289Z,100481.30
2018-08-25T09:37:03.627Z,100486.30
2018-08-25T09:42:13.334Z,100477.20
2018-08-25T09:47:22.585Z,100466.72
2018-08-25T09:52:31.630Z,100466.58
2018-08-25T09:57:41.440Z,100466.14
2018-08-25T10:02:50.246Z,100465.56
2018-08-25T10:07:59.553Z,100457.70
2018-08-25T10:13:08.849Z,100442.22
2018-08-25T10:18:17.666Z,100446.56
2018-08-25T10:23:26.604Z,100434.66
2018-08-25T10:28:35.699Z,100444.66
2018-08-25T10:33:44.761Z,100430.63
2018-08-25T10:38:53.474Z,100437.05
2018-08-25T10:44:03.035Z,100432.21
2018-08-25T10:49:12.075Z,100435.23
2018-08-25T10:54:22.086Z,100433.55
2018-08-25T10:59:30.865Z,100424.41
2018-08-25T11:04:40.097Z,100415.43
2018-08-25T11:09:49.838Z,100414.61
2018-08-25T11:14:59.409Z,100406.99
2018-08-25T11:20:08.835Z,100409.38
2018-08-25T11:25:18.409Z,100392.67
2018-08-25T11:30:27.716Z,100392.48
2018-08-25T11:35:36.681Z,100386.56
2018-08-25T11:40:45.618Z,100375.95
2018-08-25T11:45:55.402Z,100385.78
2018-08-25T11:51:07.016Z,100378.99
2018-08-25T11:56:16.521Z,100376.78
2018-08-25T12:01:25.906Z,100382.22
2018-08-25T12:06:35.002Z,100393.50
2018-08-25T12:11:44.289Z,100397.74
2018-08-25T12:16:53.308Z,100398.41
2018-08-25T12:22:02.765Z,100395.83
2018-08-25T12:27:12.080Z,100415.20
2018-08-25T12:32:21.430Z,100453.03
2018-08-25T12:37:30.633Z,100454.88
2018-08-25T12:42:39.910Z,100475.92
2018-08-25T12:47:48.862Z,100488.58
2018-08-25T12:52:57.665Z,100491.66
2018-08-25T12:58:06.945Z,100493.63
2018-08-25T13:03:16.499Z,100505.52
2018-08-25T13:08:25.428Z,100504.39
2018-08-25T13:13:34.529Z,100511.27
2018-08-25T13:18:44.183Z,100512.98
2018-08-25T13:23:53.711Z,100512.20
2018-08-25T13:29:02.818Z,100509.59
2018-08-25T13:34:12.166Z,100501.18
2018-08-25T13:39:21.437Z,100495.19
2018-08-25T13:44:31.647Z,100484.27
2018-08-25T13:49:41.275Z,100489.83
2018-08-25T13:54:50.825Z,100487.30
2018-08-25T14:00:00.235Z,100486.92
2018-08-25T14:05:10.674Z,100491.00
2018-08-25T14:10:19.960Z,100478.51
2018-08-25T14:15:29.082Z,100473.91
2018-08-25T14:20:38.149Z,100462.78
2018-08-25T14:25:47.492Z,100458.64
2018-08-25T14:30:56.162Z,100459.30
2018-08-25T14:36:11.459Z,100466.45
2018-08-25T14:41:20.671Z,100459.55
2018-08-25T14:46:29.659Z,100461.59
2018-08-25T14:51:38.904Z,100467.86
2018-08-25T14:56:47.839Z,100461.14
2018-08-25T15:01:57.084Z,100459.02
2018-08-25T15:07:06.281Z,100473.57
2018-08-25T15:12:15.651Z,100471.73
2018-08-25T15:17:24.665Z,100470.35
2018-08-25T15:22:34.741Z,100467.31
2018-08-25T15:27:43.892Z,100466.69
2018-08-25T15:32:53.590Z,100466.75
2018-08-25T15:38:03.072Z,100486.80
2018-08-25T15:43:12.070Z,100477.87
2018-08-25T15:48:21.899Z,100489.18
2018-08-25T15:53:31.508Z,100495.63
2018-08-25T15:58:40.932Z,100518.28
2018-08-25T16:03:50.425Z,100525.69
2018-08-25T16:08:59.702Z,100531.06
2018-08-25T16:14:08.967Z,100527.84
2018-08-25T16:19:17.924Z,100533.25
2018-08-25T16:24:26.812Z,100537.22
2018-08-25T16:29:35.686Z,100545.97
2018-08-25T16:34:45.044Z,100548.80
2018-08-25T16:39:54.348Z,100550.80
2018-08-25T16:45:04.095Z,100543.38
2018-08-25T16:50:13.376Z,100553.14
2018-08-25T16:55:22.834Z,100559.30
2018-08-25T17:00:31.961Z,100567.33
2018-08-25T17:05:41.179Z,100569.78
2018-08-25T17:10:52.837Z,100568.98
2018-08-25T17:16:02.278Z,100561.18
2018-08-25T17:21:11.582Z,100566.69
2018-08-25T17:26:21.359Z,100571.52
2018-08-25T17:31:30.909Z,100568.21
2018-08-25T17:36:39.777Z,100571.48
2018-08-25T17:41:49.566Z,100582.58
2018-08-25T17:46:58.620Z,100586.55
2018-08-25T17:52:07.639Z,100589.63
2018-08-25T17:57:16.766Z,100597.70
2018-08-25T18:02:25.901Z,100601.66
2018-08-25T18:07:34.921Z,100613.12
2018-08-25T18:12:44.413Z,100617.81
2018-08-25T18:17:53.199Z,100630.05
2018-08-25T18:23:02.585Z,100640.87
2018-08-25T18:28:11.522Z,100648.35
2018-08-25T18:33:20.934Z,100654.21
2018-08-25T18:38:30.436Z,100661.91
2018-08-25T18:43:39.692Z,100664.09
2018-08-25T18:48:48.880Z,100679.98
2018-08-25T18:53:57.985Z,100685.86
2018-08-25T18:59:07.137Z,100688.37
2018-08-25T19:04:16.732Z,100686.27
2018-08-25T19:09:25.756Z,100693.08
2018-08-25T19:14:34.776Z,100705.09
2018-08-25T19:19:43.710Z,100702.54
2018-08-25T19:24:53.097Z,100716.55
2018-08-25T19:30:02.229Z,100716.80
2018-08-25T19:35:11.321Z,100720.20
2018-08-25T19:40:20.813Z,100730.67
2018-08-25T19:45:31.481Z,100735.36
2018-08-25T19:50:41.258Z,100727.14
2018-08-25T19:55:50.130Z,100730.97
2018-08-25T20:00:59.687Z,100730.67
2018-08-25T20:06:09.278Z,100739.69
2018-08-25T20:11:18.817Z,100755.91
2018-08-25T20:16:27.841Z,100766.71
2018-08-25T20:21:36.988Z,100773.16
2018-08-25T20:26:46.134Z,100776.53
2018-08-25T20:31:57.854Z,100784.91
2018-08-25T20:37:08.949Z,100773.91
2018-08-25T20:42:20.236Z,100780.22
2018-08-25T20:47:31.101Z,100792.38
2018-08-25T20:52:44.282Z,100797.35
2018-08-25T20:57:54.380Z,100816.38
2018-08-25T21:03:05.283Z,100818.64
2018-08-25T21:08:16.912Z,100830.16
2018-08-25T21:13:27.133Z,100842.02
2018-08-25T21:18:36.098Z,100845.54
2018-08-25T21:23:45.276Z,100843.11
2018-08-25T21:28:54.686Z,100843.68
2018-08-25T21:34:04.012Z,100853.26
2018-08-25T21:39:13.281Z,100856.31
2018-08-25T21:44:22.138Z,100856.34
2018-08-25T21:49:31.674Z,100858.86
2018-08-25T21:54:41.072Z,100862.74
2018-08-25T21:59:50.418Z,100858.41
2018-08-25T22:04:59.565Z,100870.45
2018-08-25T22:10:08.572Z,100882.31
2018-08-25T22:15:17.963Z,100886.23
2018-08-25T22:20:26.603Z,100886.34
2018-08-25T22:25:35.850Z,100887.80
2018-08-25T22:30:45.156Z,100897.84
2018-08-25T22:35:53.860Z,100903.83
2018-08-25T22:41:02.803Z,100907.67
2018-08-25T22:46:12.208Z,100922.70
2018-08-25T22:51:21.410Z,100923.72
2018-08-25T22:56:30.098Z,100923.79
2018-08-25T23:01:39.401Z,100931.07
2018-08-25T23:06:48.491Z,100933.50
2018-08-25T23:11:57.252Z,100940.50
2018-08-25T23:17:06.164Z,100941.72
2018-08-25T23:22:14.909Z,100944.73
2018-08-25T23:27:23.674Z,100956.55
2018-08-25T23:32:32.657Z,100951.38
2018-08-25T23:37:42.234Z,100952.41
2018-08-25T23:42:51.547Z,100948.61
2018-08-25T23:48:00.302Z,100955.66
2018-08-25T23:53:09.227Z,100955.34
2018-08-25T23:58:19.849Z,100951.23
